Timestamp Temperature Pressure Humidity
2021-09-16 00:18:42 14.49 1016.07 84.42
2021-09-16 00:48:42 14.43 1016.1 84.28
2021-09-16 01:18:42 14.36 1016.15 83.71
2021-09-16 01:48:42 14.28 1016.2 83.03
2021-09-16 02:18:43 14.19 1016.24 82.18
2021-09-16 02:48:43 14.09 1016.26 81.13
2021-09-16 03:18:44 13.99 1016.29 81.74
2021-09-16 03:48:44 13.87 1016.31 82.22
2021-09-16 04:18:44 13.77 1016.34 82.33
2021-09-16 04:48:44 13.66 1016.36 81.77
2021-09-16 05:18:45 13.55 1016.39 81.97
2021-09-16 05:48:45 13.42 1016.4 81.76
2021-09-16 06:18:45 13.28 1016.42 81.38
2021-09-16 06:48:46 13.13 1016.45 81.33
2021-09-16 07:18:46 12.96 1016.5 81.17
2021-09-16 07:48:46 12.81 1016.54 81.42
2021-09-16 08:18:46 12.65 1016.59 81.91
2021-09-16 08:48:47 12.51 1016.63 82.46
2021-09-16 09:18:47 12.38 1016.67 82.93
2021-09-16 09:48:47 12.34 1016.7 82.89
2021-09-16 10:18:48 12.31 1016.74 83.44
2021-09-16 10:48:48 12.3 1016.77 82.39
2021-09-16 11:18:49 12.3 1016.79 81.69
2021-09-16 11:48:49 12.33 1016.81 79.86
2021-09-16 12:18:49 12.4 1016.83 77.34
2021-09-16 12:48:49 12.55 1016.81 74.14
2021-09-16 13:18:50 12.71 1016.78 72.84
2021-09-16 13:48:50 12.91 1016.74 70.25
2021-09-16 14:18:50 13.13 1016.68 67.63
2021-09-16 14:48:50 13.31 1016.61 66.96
2021-09-16 15:18:51 13.5 1016.52 66.38
2021-09-16 15:48:51 13.67 1016.42 66.99
2021-09-16 16:18:51 13.81 1016.31 68.71
2021-09-16 16:48:52 13.94 1016.2 70.36
2021-09-16 17:18:52 14.04 1016.09 71.64
2021-09-16 17:48:52 14.12 1016 72.82
2021-09-16 18:18:52 14.17 1015.93 75.83
2021-09-16 18:48:53 14.19 1015.85 76.3
2021-09-16 19:18:53 14.2 1015.78 76.06
2021-09-16 19:48:53 14.2 1015.71 75.94
2021-09-16 20:18:53 14.19 1015.66 76.07
2021-09-16 20:48:54 14.17 1015.6 76.33
2021-09-16 21:18:54 14.15 1015.53 76.81
2021-09-16 21:48:54 14.12 1015.48 77.39
2021-09-16 22:18:54 14.09 1015.42 78.35
2021-09-16 22:48:55 14.06 1015.34 78.66
2021-09-16 23:18:55 14.03 1015.26 79.01
2021-09-16 23:48:55 14.01 1015.19 80.89